sensor_id;sensor_type;location;lat;lon;timestamp;temperature;humidity
69387;SHT31;56575;48.942;8.404;2022-11-20T00:00:00;5.85;95.72
69387;SHT31;56575;48.942;8.404;2022-11-20T00:02:25;5.83;95.79
69387;SHT31;56575;48.942;8.404;2022-11-20T00:04:51;5.86;96.00
69387;SHT31;56575;48.942;8.404;2022-11-20T00:07:16;5.86;95.50
69387;SHT31;56575;48.942;8.404;2022-11-20T00:09:42;5.92;95.65
69387;SHT31;56575;48.942;8.404;2022-11-20T00:12:07;5.92;95.61
69387;SHT31;56575;48.942;8.404;2022-11-20T00:14:33;5.92;95.85
69387;SHT31;56575;48.942;8.404;2022-11-20T00:16:58;5.91;95.63
69387;SHT31;56575;48.942;8.404;2022-11-20T00:19:23;5.93;95.94
69387;SHT31;56575;48.942;8.404;2022-11-20T00:21:49;5.96;95.81
69387;SHT31;56575;48.942;8.404;2022-11-20T00:24:16;5.96;95.74
69387;SHT31;56575;48.942;8.404;2022-11-20T00:26:42;5.93;95.25
69387;SHT31;56575;48.942;8.404;2022-11-20T00:29:08;5.95;95.48
69387;SHT31;56575;48.942;8.404;2022-11-20T00:31:35;5.93;95.54
69387;SHT31;56575;48.942;8.404;2022-11-20T00:34:00;5.96;95.70
69387;SHT31;56575;48.942;8.404;2022-11-20T00:36:27;5.99;96.15
69387;SHT31;56575;48.942;8.404;2022-11-20T00:38:53;6.02;94.89
69387;SHT31;56575;48.942;8.404;2022-11-20T00:41:20;6.05;95.27
69387;SHT31;56575;48.942;8.404;2022-11-20T00:43:45;5.98;94.73
69387;SHT31;56575;48.942;8.404;2022-11-20T00:46:19;6.01;95.31
69387;SHT31;56575;48.942;8.404;2022-11-20T00:48:45;6.01;94.82
69387;SHT31;56575;48.942;8.404;2022-11-20T00:51:13;6.02;95.03
69387;SHT31;56575;48.942;8.404;2022-11-20T00:53:38;6.03;95.19
69387;SHT31;56575;48.942;8.404;2022-11-20T00:56:06;6.01;94.98
69387;SHT31;56575;48.942;8.404;2022-11-20T00:58:35;5.98;94.66
69387;SHT31;56575;48.942;8.404;2022-11-20T01:01:13;5.93;94.72
69387;SHT31;56575;48.942;8.404;2022-11-20T01:03:41;5.98;95.25
69387;SHT31;56575;48.942;8.404;2022-11-20T01:06:10;6.01;95.11
69387;SHT31;56575;48.942;8.404;2022-11-20T01:08:36;6.02;95.53
69387;SHT31;56575;48.942;8.404;2022-11-20T01:11:04;6.03;95.54
69387;SHT31;56575;48.942;8.404;2022-11-20T01:13:31;6.06;95.52
69387;SHT31;56575;48.942;8.404;2022-11-20T01:18:39;6.07;95.50
69387;SHT31;56575;48.942;8.404;2022-11-20T01:21:06;6.07;95.43
69387;SHT31;56575;48.942;8.404;2022-11-20T01:23:34;6.09;95.89
69387;SHT31;56575;48.942;8.404;2022-11-20T01:26:01;6.13;95.78
69387;SHT31;56575;48.942;8.404;2022-11-20T01:28:28;6.10;95.72
69387;SHT31;56575;48.942;8.404;2022-11-20T01:30:53;6.12;96.11
69387;SHT31;56575;48.942;8.404;2022-11-20T01:33:19;6.14;95.75
69387;SHT31;56575;48.942;8.404;2022-11-20T01:35:44;6.19;95.64
69387;SHT31;56575;48.942;8.404;2022-11-20T01:38:09;6.17;96.03
69387;SHT31;56575;48.942;8.404;2022-11-20T01:40:35;6.27;96.01
69387;SHT31;56575;48.942;8.404;2022-11-20T01:43:14;6.36;96.11
69387;SHT31;56575;48.942;8.404;2022-11-20T01:46:08;6.45;96.28
69387;SHT31;56575;48.942;8.404;2022-11-20T01:51:33;6.79;95.18
69387;SHT31;56575;48.942;8.404;2022-11-20T01:54:03;6.86;95.15
69387;SHT31;56575;48.942;8.404;2022-11-20T01:56:31;6.95;94.75
69387;SHT31;56575;48.942;8.404;2022-11-20T01:58:59;6.99;94.23
69387;SHT31;56575;48.942;8.404;2022-11-20T02:01:27;6.97;93.89
69387;SHT31;56575;48.942;8.404;2022-11-20T02:03:52;7.02;93.99
69387;SHT31;56575;48.942;8.404;2022-11-20T02:06:29;7.07;93.26
69387;SHT31;56575;48.942;8.404;2022-11-20T02:08:55;7.09;92.77
69387;SHT31;56575;48.942;8.404;2022-11-20T02:11:21;7.12;92.44
69387;SHT31;56575;48.942;8.404;2022-11-20T02:13:47;7.17;92.16
69387;SHT31;56575;48.942;8.404;2022-11-20T02:16:15;7.23;91.76
69387;SHT31;56575;48.942;8.404;2022-11-20T02:18:42;7.19;91.85
69387;SHT31;56575;48.942;8.404;2022-11-20T02:21:43;7.26;91.66
69387;SHT31;56575;48.942;8.404;2022-11-20T02:24:15;7.26;91.60
69387;SHT31;56575;48.942;8.404;2022-11-20T02:26:51;7.28;91.12
69387;SHT31;56575;48.942;8.404;2022-11-20T02:29:33;7.31;90.62
69387;SHT31;56575;48.942;8.404;2022-11-20T02:32:01;7.34;91.38
69387;SHT31;56575;48.942;8.404;2022-11-20T02:34:27;7.37;90.95
69387;SHT31;56575;48.942;8.404;2022-11-20T02:36:55;7.40;90.77
69387;SHT31;56575;48.942;8.404;2022-11-20T02:39:22;7.37;90.55
69387;SHT31;56575;48.942;8.404;2022-11-20T02:41:52;7.40;90.80
69387;SHT31;56575;48.942;8.404;2022-11-20T02:44:17;7.38;90.40
69387;SHT31;56575;48.942;8.404;2022-11-20T02:46:43;7.41;90.25
69387;SHT31;56575;48.942;8.404;2022-11-20T02:49:08;7.38;90.37
69387;SHT31;56575;48.942;8.404;2022-11-20T02:51:34;7.35;90.82
69387;SHT31;56575;48.942;8.404;2022-11-20T02:53:59;7.37;90.46
69387;SHT31;56575;48.942;8.404;2022-11-20T02:56:24;7.34;90.42
69387;SHT31;56575;48.942;8.404;2022-11-20T02:58:50;7.32;90.58
69387;SHT31;56575;48.942;8.404;2022-11-20T03:01:16;7.34;90.14
69387;SHT31;56575;48.942;8.404;2022-11-20T03:03:41;7.32;90.59
69387;SHT31;56575;48.942;8.404;2022-11-20T03:06:07;7.32;91.00
69387;SHT31;56575;48.942;8.404;2022-11-20T03:08:33;7.31;90.36
69387;SHT31;56575;48.942;8.404;2022-11-20T03:11:05;7.35;90.17
69387;SHT31;56575;48.942;8.404;2022-11-20T03:13:31;7.32;90.26
69387;SHT31;56575;48.942;8.404;2022-11-20T03:15:57;7.32;90.17
69387;SHT31;56575;48.942;8.404;2022-11-20T03:18:22;7.32;89.90
69387;SHT31;56575;48.942;8.404;2022-11-20T03:20:47;7.38;90.36
69387;SHT31;56575;48.942;8.404;2022-11-20T03:23:13;7.37;90.05
69387;SHT31;56575;48.942;8.404;2022-11-20T03:25:38;7.43;89.97
69387;SHT31;56575;48.942;8.404;2022-11-20T03:28:04;7.41;89.66
69387;SHT31;56575;48.942;8.404;2022-11-20T03:30:29;7.44;89.46
69387;SHT31;56575;48.942;8.404;2022-11-20T03:32:54;7.44;89.73
69387;SHT31;56575;48.942;8.404;2022-11-20T03:35:20;7.47;89.11
69387;SHT31;56575;48.942;8.404;2022-11-20T03:37:45;7.46;89.28
69387;SHT31;56575;48.942;8.404;2022-11-20T03:40:11;7.43;89.30
69387;SHT31;56575;48.942;8.404;2022-11-20T03:42:36;7.46;89.54
69387;SHT31;56575;48.942;8.404;2022-11-20T03:45:16;7.43;88.99
69387;SHT31;56575;48.942;8.404;2022-11-20T03:47:42;7.40;89.41
69387;SHT31;56575;48.942;8.404;2022-11-20T03:50:08;7.44;89.14
69387;SHT31;56575;48.942;8.404;2022-11-20T03:52:34;7.38;89.17
69387;SHT31;56575;48.942;8.404;2022-11-20T03:54:59;7.43;89.07
69387;SHT31;56575;48.942;8.404;2022-11-20T03:57:24;7.40;89.53
69387;SHT31;56575;48.942;8.404;2022-11-20T03:59:50;7.44;88.61
69387;SHT31;56575;48.942;8.404;2022-11-20T04:02:15;7.48;88.90
69387;SHT31;56575;48.942;8.404;2022-11-20T04:04:40;7.48;88.89
69387;SHT31;56575;48.942;8.404;2022-11-20T04:07:06;7.51;88.41
69387;SHT31;56575;48.942;8.404;2022-11-20T04:09:31;7.51;88.52
69387;SHT31;56575;48.942;8.404;2022-11-20T04:11:56;7.48;88.59
69387;SHT31;56575;48.942;8.404;2022-11-20T04:14:22;7.54;88.47
69387;SHT31;56575;48.942;8.404;2022-11-20T04:16:47;7.50;88.18
69387;SHT31;56575;48.942;8.404;2022-11-20T04:19:14;7.52;88.61
69387;SHT31;56575;48.942;8.404;2022-11-20T04:21:41;7.52;88.19
69387;SHT31;56575;48.942;8.404;2022-11-20T04:24:07;7.52;88.22
69387;SHT31;56575;48.942;8.404;2022-11-20T04:26:33;7.48;88.62
69387;SHT31;56575;48.942;8.404;2022-11-20T04:28:59;7.47;88.64
69387;SHT31;56575;48.942;8.404;2022-11-20T04:31:29;7.51;88.67
69387;SHT31;56575;48.942;8.404;2022-11-20T04:33:55;7.50;88.40
69387;SHT31;56575;48.942;8.404;2022-11-20T04:36:22;7.50;88.39
69387;SHT31;56575;48.942;8.404;2022-11-20T04:39:00;7.50;88.52
69387;SHT31;56575;48.942;8.404;2022-11-20T04:41:28;7.46;88.65
69387;SHT31;56575;48.942;8.404;2022-11-20T04:43:55;7.50;88.32
69387;SHT31;56575;48.942;8.404;2022-11-20T04:46:25;7.46;88.51
69387;SHT31;56575;48.942;8.404;2022-11-20T04:48:51;7.46;88.54
69387;SHT31;56575;48.942;8.404;2022-11-20T04:51:17;7.48;88.26
69387;SHT31;56575;48.942;8.404;2022-11-20T04:53:42;7.50;88.34
69387;SHT31;56575;48.942;8.404;2022-11-20T04:56:10;7.50;88.43
69387;SHT31;56575;48.942;8.404;2022-11-20T04:58:36;7.50;88.41
69387;SHT31;56575;48.942;8.404;2022-11-20T05:01:06;7.48;88.29
69387;SHT31;56575;48.942;8.404;2022-11-20T05:03:32;7.50;88.48
69387;SHT31;56575;48.942;8.404;2022-11-20T05:06:03;7.47;88.61
69387;SHT31;56575;48.942;8.404;2022-11-20T05:08:30;7.47;87.94
69387;SHT31;56575;48.942;8.404;2022-11-20T05:11:07;7.51;87.63
69387;SHT31;56575;48.942;8.404;2022-11-20T05:13:33;7.54;87.22
69387;SHT31;56575;48.942;8.404;2022-11-20T05:16:03;7.57;86.80
69387;SHT31;56575;48.942;8.404;2022-11-20T05:18:28;7.52;86.73
69387;SHT31;56575;48.942;8.404;2022-11-20T05:20:57;7.54;86.75
69387;SHT31;56575;48.942;8.404;2022-11-20T05:23:24;7.57;86.73
69387;SHT31;56575;48.942;8.404;2022-11-20T05:25:55;7.51;86.64
69387;SHT31;56575;48.942;8.404;2022-11-20T05:28:21;7.57;87.18
69387;SHT31;56575;48.942;8.404;2022-11-20T05:30:46;7.51;87.00
69387;SHT31;56575;48.942;8.404;2022-11-20T05:33:12;7.55;86.98
69387;SHT31;56575;48.942;8.404;2022-11-20T05:35:37;7.57;86.35
69387;SHT31;56575;48.942;8.404;2022-11-20T05:38:02;7.58;86.86
69387;SHT31;56575;48.942;8.404;2022-11-20T05:40:28;7.59;86.32
69387;SHT31;56575;48.942;8.404;2022-11-20T05:42:53;7.59;86.92
69387;SHT31;56575;48.942;8.404;2022-11-20T05:45:18;7.58;86.82
69387;SHT31;56575;48.942;8.404;2022-11-20T05:47:44;7.57;86.92
69387;SHT31;56575;48.942;8.404;2022-11-20T05:50:09;7.58;86.77
69387;SHT31;56575;48.942;8.404;2022-11-20T05:52:34;7.61;86.63
69387;SHT31;56575;48.942;8.404;2022-11-20T05:55:00;7.59;86.49
69387;SHT31;56575;48.942;8.404;2022-11-20T05:57:25;7.59;85.82
69387;SHT31;56575;48.942;8.404;2022-11-20T05:59:51;7.55;86.15
69387;SHT31;56575;48.942;8.404;2022-11-20T06:02:16;7.57;86.16
69387;SHT31;56575;48.942;8.404;2022-11-20T06:04:42;7.59;86.21
69387;SHT31;56575;48.942;8.404;2022-11-20T06:07:07;7.58;85.67
69387;SHT31;56575;48.942;8.404;2022-11-20T06:09:33;7.58;85.90
69387;SHT31;56575;48.942;8.404;2022-11-20T06:11:58;7.55;85.46
69387;SHT31;56575;48.942;8.404;2022-11-20T06:14:23;7.58;85.68
69387;SHT31;56575;48.942;8.404;2022-11-20T06:16:49;7.61;85.75
69387;SHT31;56575;48.942;8.404;2022-11-20T06:19:14;7.64;85.01
69387;SHT31;56575;48.942;8.404;2022-11-20T06:21:40;7.64;85.17
69387;SHT31;56575;48.942;8.404;2022-11-20T06:24:06;7.61;85.19
69387;SHT31;56575;48.942;8.404;2022-11-20T06:26:31;7.65;85.67
69387;SHT31;56575;48.942;8.404;2022-11-20T06:28:57;7.61;85.87
69387;SHT31;56575;48.942;8.404;2022-11-20T06:31:24;7.61;85.81
69387;SHT31;56575;48.942;8.404;2022-11-20T06:33:50;7.59;86.05
69387;SHT31;56575;48.942;8.404;2022-11-20T06:36:19;7.61;86.43
69387;SHT31;56575;48.942;8.404;2022-11-20T06:38:45;7.61;85.73
69387;SHT31;56575;48.942;8.404;2022-11-20T06:41:13;7.61;86.27
69387;SHT31;56575;48.942;8.404;2022-11-20T06:43:39;7.58;86.28
69387;SHT31;56575;48.942;8.404;2022-11-20T06:46:04;7.57;86.66
69387;SHT31;56575;48.942;8.404;2022-11-20T06:48:30;7.62;86.84
69387;SHT31;56575;48.942;8.404;2022-11-20T06:50:56;7.59;86.55
69387;SHT31;56575;48.942;8.404;2022-11-20T06:53:22;7.59;86.77
69387;SHT31;56575;48.942;8.404;2022-11-20T06:55:48;7.61;86.76
69387;SHT31;56575;48.942;8.404;2022-11-20T06:58:15;7.62;86.89
69387;SHT31;56575;48.942;8.404;2022-11-20T07:00:41;7.59;86.98
69387;SHT31;56575;48.942;8.404;2022-11-20T07:03:07;7.61;86.87
69387;SHT31;56575;48.942;8.404;2022-11-20T07:05:34;7.61;87.13
69387;SHT31;56575;48.942;8.404;2022-11-20T07:07:59;7.61;87.36
69387;SHT31;56575;48.942;8.404;2022-11-20T07:10:25;7.61;87.37
69387;SHT31;56575;48.942;8.404;2022-11-20T07:12:52;7.62;86.89
69387;SHT31;56575;48.942;8.404;2022-11-20T07:15:19;7.65;87.42
69387;SHT31;56575;48.942;8.404;2022-11-20T07:17:45;7.62;87.36
69387;SHT31;56575;48.942;8.404;2022-11-20T07:20:11;7.58;87.55
69387;SHT31;56575;48.942;8.404;2022-11-20T07:22:37;7.59;87.95
69387;SHT31;56575;48.942;8.404;2022-11-20T07:25:03;7.58;87.59
69387;SHT31;56575;48.942;8.404;2022-11-20T07:27:28;7.61;88.31
69387;SHT31;56575;48.942;8.404;2022-11-20T07:29:54;7.64;88.37
69387;SHT31;56575;48.942;8.404;2022-11-20T07:32:19;7.64;87.47
69387;SHT31;56575;48.942;8.404;2022-11-20T07:34:45;7.64;87.81
69387;SHT31;56575;48.942;8.404;2022-11-20T07:37:10;7.62;87.75
69387;SHT31;56575;48.942;8.404;2022-11-20T07:39:36;7.66;87.87
69387;SHT31;56575;48.942;8.404;2022-11-20T07:42:01;7.65;87.55
69387;SHT31;56575;48.942;8.404;2022-11-20T07:44:26;7.69;87.55
69387;SHT31;56575;48.942;8.404;2022-11-20T07:46:52;7.69;87.50
69387;SHT31;56575;48.942;8.404;2022-11-20T07:49:17;7.71;87.68
69387;SHT31;56575;48.942;8.404;2022-11-20T07:51:43;7.71;87.63
69387;SHT31;56575;48.942;8.404;2022-11-20T07:54:08;7.71;87.96
69387;SHT31;56575;48.942;8.404;2022-11-20T07:56:34;7.72;88.04
69387;SHT31;56575;48.942;8.404;2022-11-20T07:58:59;7.74;88.06
69387;SHT31;56575;48.942;8.404;2022-11-20T08:01:24;7.74;87.79
69387;SHT31;56575;48.942;8.404;2022-11-20T08:03:50;7.71;88.56
69387;SHT31;56575;48.942;8.404;2022-11-20T08:06:15;7.68;88.06
69387;SHT31;56575;48.942;8.404;2022-11-20T08:08:41;7.68;88.33
69387;SHT31;56575;48.942;8.404;2022-11-20T08:11:06;7.69;88.71
69387;SHT31;56575;48.942;8.404;2022-11-20T08:13:50;7.65;89.46
69387;SHT31;56575;48.942;8.404;2022-11-20T08:16:34;7.61;90.44
69387;SHT31;56575;48.942;8.404;2022-11-20T08:18:59;7.54;90.55
69387;SHT31;56575;48.942;8.404;2022-11-20T08:21:25;7.51;90.90
69387;SHT31;56575;48.942;8.404;2022-11-20T08:23:50;7.48;91.13
69387;SHT31;56575;48.942;8.404;2022-11-20T08:26:16;7.50;91.07
69387;SHT31;56575;48.942;8.404;2022-11-20T08:28:41;7.50;91.28
69387;SHT31;56575;48.942;8.404;2022-11-20T08:31:06;7.48;91.70
69387;SHT31;56575;48.942;8.404;2022-11-20T08:33:32;7.52;91.17
69387;SHT31;56575;48.942;8.404;2022-11-20T08:36:02;7.51;91.39
69387;SHT31;56575;48.942;8.404;2022-11-20T08:38:27;7.55;90.87
69387;SHT31;56575;48.942;8.404;2022-11-20T08:40:59;7.64;91.27
69387;SHT31;56575;48.942;8.404;2022-11-20T08:43:44;7.64;90.67
69387;SHT31;56575;48.942;8.404;2022-11-20T08:46:09;7.62;90.78
69387;SHT31;56575;48.942;8.404;2022-11-20T08:48:34;7.64;90.96
69387;SHT31;56575;48.942;8.404;2022-11-20T08:51:00;7.68;90.81
69387;SHT31;56575;48.942;8.404;2022-11-20T08:53:26;7.74;90.69
69387;SHT31;56575;48.942;8.404;2022-11-20T08:55:51;7.68;90.17
69387;SHT31;56575;48.942;8.404;2022-11-20T08:58:17;7.69;90.22
69387;SHT31;56575;48.942;8.404;2022-11-20T09:00:42;7.74;90.96
69387;SHT31;56575;48.942;8.404;2022-11-20T09:03:08;7.72;90.33
69387;SHT31;56575;48.942;8.404;2022-11-20T09:05:33;7.69;90.08
69387;SHT31;56575;48.942;8.404;2022-11-20T09:07:59;7.69;90.28
69387;SHT31;56575;48.942;8.404;2022-11-20T09:10:25;7.69;91.07
69387;SHT31;56575;48.942;8.404;2022-11-20T09:12:51;7.66;90.69
69387;SHT31;56575;48.942;8.404;2022-11-20T09:15:17;7.69;91.96
69387;SHT31;56575;48.942;8.404;2022-11-20T09:17:56;7.58;92.26
69387;SHT31;56575;48.942;8.404;2022-11-20T09:20:23;7.47;92.78
69387;SHT31;56575;48.942;8.404;2022-11-20T09:22:48;7.43;93.78
69387;SHT31;56575;48.942;8.404;2022-11-20T09:25:14;7.43;94.32
69387;SHT31;56575;48.942;8.404;2022-11-20T09:27:39;7.41;94.21
69387;SHT31;56575;48.942;8.404;2022-11-20T09:30:07;7.41;94.49
69387;SHT31;56575;48.942;8.404;2022-11-20T09:32:32;7.37;94.65
69387;SHT31;56575;48.942;8.404;2022-11-20T09:34:57;7.35;95.38
69387;SHT31;56575;48.942;8.404;2022-11-20T09:37:23;7.34;95.70
69387;SHT31;56575;48.942;8.404;2022-11-20T09:39:48;7.35;95.30
69387;SHT31;56575;48.942;8.404;2022-11-20T09:51:06;7.28;95.45
69387;SHT31;56575;48.942;8.404;2022-11-20T09:56:01;7.35;95.60
69387;SHT31;56575;48.942;8.404;2022-11-20T09:58:32;7.32;95.41
69387;SHT31;56575;48.942;8.404;2022-11-20T10:01:12;7.34;95.85
69387;SHT31;56575;48.942;8.404;2022-11-20T10:03:48;7.35;96.07
69387;SHT31;56575;48.942;8.404;2022-11-20T10:06:17;7.35;96.18
69387;SHT31;56575;48.942;8.404;2022-11-20T10:25:26;7.54;95.39
69387;SHT31;56575;48.942;8.404;2022-11-20T10:30:31;7.68;95.04
69387;SHT31;56575;48.942;8.404;2022-11-20T10:33:13;7.81;94.28
69387;SHT31;56575;48.942;8.404;2022-11-20T10:35:44;7.90;93.76
69387;SHT31;56575;48.942;8.404;2022-11-20T10:38:28;7.99;93.08
69387;SHT31;56575;48.942;8.404;2022-11-20T10:40:57;8.09;92.34
69387;SHT31;56575;48.942;8.404;2022-11-20T10:43:44;8.26;92.84
69387;SHT31;56575;48.942;8.404;2022-11-20T10:46:21;8.33;92.19
69387;SHT31;56575;48.942;8.404;2022-11-20T10:48:48;8.49;91.26
69387;SHT31;56575;48.942;8.404;2022-11-20T10:54:46;8.57;90.70
69387;SHT31;56575;48.942;8.404;2022-11-20T11:00:10;8.64;90.20
69387;SHT31;56575;48.942;8.404;2022-11-20T11:02:43;8.66;88.98
69387;SHT31;56575;48.942;8.404;2022-11-20T11:05:17;8.68;89.07
69387;SHT31;56575;48.942;8.404;2022-11-20T11:07:49;8.75;88.78
69387;SHT31;56575;48.942;8.404;2022-11-20T11:10:22;8.95;88.93
69387;SHT31;56575;48.942;8.404;2022-11-20T11:12:49;9.17;88.30
69387;SHT31;56575;48.942;8.404;2022-11-20T11:15:40;9.24;87.58
69387;SHT31;56575;48.942;8.404;2022-11-20T11:18:10;9.30;87.76
69387;SHT31;56575;48.942;8.404;2022-11-20T11:20:36;9.31;86.62
69387;SHT31;56575;48.942;8.404;2022-11-20T11:23:02;9.30;86.47
69387;SHT31;56575;48.942;8.404;2022-11-20T11:25:33;9.42;86.57
69387;SHT31;56575;48.942;8.404;2022-11-20T11:28:02;9.63;85.86
69387;SHT31;56575;48.942;8.404;2022-11-20T11:30:30;9.83;84.48
69387;SHT31;56575;48.942;8.404;2022-11-20T11:33:08;10.40;83.34
69387;SHT31;56575;48.942;8.404;2022-11-20T11:35:43;10.69;80.63
69387;SHT31;56575;48.942;8.404;2022-11-20T11:38:17;11.38;77.99
69387;SHT31;56575;48.942;8.404;2022-11-20T11:40:44;11.61;77.12
69387;SHT31;56575;48.942;8.404;2022-11-20T11:43:22;11.16;76.45
69387;SHT31;56575;48.942;8.404;2022-11-20T11:46:24;10.91;78.11
69387;SHT31;56575;48.942;8.404;2022-11-20T11:52:00;10.92;76.15
69387;SHT31;56575;48.942;8.404;2022-11-20T11:54:55;10.68;75.79
69387;SHT31;56575;48.942;8.404;2022-11-20T12:00:16;9.99;75.88
69387;SHT31;56575;48.942;8.404;2022-11-20T12:07:57;11.52;71.67
69387;SHT31;56575;48.942;8.404;2022-11-20T12:10:41;11.45;71.89
69387;SHT31;56575;48.942;8.404;2022-11-20T12:13:27;10.95;72.30
69387;SHT31;56575;48.942;8.404;2022-11-20T12:15:55;10.64;72.51
69387;SHT31;56575;48.942;8.404;2022-11-20T12:18:22;10.47;73.85
69387;SHT31;56575;48.942;8.404;2022-11-20T12:24:21;10.55;76.32
69387;SHT31;56575;48.942;8.404;2022-11-20T12:32:31;10.41;70.54
69387;SHT31;56575;48.942;8.404;2022-11-20T12:40:56;10.76;68.46
69387;SHT31;56575;48.942;8.404;2022-11-20T12:43:28;10.48;67.31
69387;SHT31;56575;48.942;8.404;2022-11-20T12:52:21;9.81;67.13
69387;SHT31;56575;48.942;8.404;2022-11-20T12:55:15;9.67;68.66
69387;SHT31;56575;48.942;8.404;2022-11-20T12:58:04;9.58;69.89
69387;SHT31;56575;48.942;8.404;2022-11-20T13:00:32;10.62;67.07
69387;SHT31;56575;48.942;8.404;2022-11-20T13:05:46;12.84;58.44
69387;SHT31;56575;48.942;8.404;2022-11-20T13:08:28;13.46;56.54
69387;SHT31;56575;48.942;8.404;2022-11-20T13:10:56;12.72;56.79
69387;SHT31;56575;48.942;8.404;2022-11-20T13:13:32;11.67;58.63
69387;SHT31;56575;48.942;8.404;2022-11-20T13:16:04;11.00;60.64
69387;SHT31;56575;48.942;8.404;2022-11-20T13:18:37;12.23;58.45
69387;SHT31;56575;48.942;8.404;2022-11-20T13:21:17;12.86;55.24
69387;SHT31;56575;48.942;8.404;2022-11-20T13:23:43;13.26;54.66
69387;SHT31;56575;48.942;8.404;2022-11-20T13:26:17;13.21;53.74
69387;SHT31;56575;48.942;8.404;2022-11-20T13:28:46;12.91;55.59
69387;SHT31;56575;48.942;8.404;2022-11-20T13:31:34;12.86;54.82
69387;SHT31;56575;48.942;8.404;2022-11-20T13:34:02;11.83;58.63
69387;SHT31;56575;48.942;8.404;2022-11-20T13:36:29;11.61;59.35
69387;SHT31;56575;48.942;8.404;2022-11-20T13:38:56;11.44;59.56
69387;SHT31;56575;48.942;8.404;2022-11-20T13:41:26;11.95;59.78
69387;SHT31;56575;48.942;8.404;2022-11-20T13:44:23;12.41;57.25
69387;SHT31;56575;48.942;8.404;2022-11-20T13:46:49;12.93;56.42
69387;SHT31;56575;48.942;8.404;2022-11-20T13:49:29;13.37;54.93
69387;SHT31;56575;48.942;8.404;2022-11-20T13:54:52;13.38;53.00
69387;SHT31;56575;48.942;8.404;2022-11-20T14:02:32;13.33;51.72
69387;SHT31;56575;48.942;8.404;2022-11-20T14:04:59;13.30;51.46
69387;SHT31;56575;48.942;8.404;2022-11-20T14:07:34;13.51;51.60
69387;SHT31;56575;48.942;8.404;2022-11-20T14:10:01;13.16;52.27
69387;SHT31;56575;48.942;8.404;2022-11-20T14:12:32;12.76;52.69
69387;SHT31;56575;48.942;8.404;2022-11-20T14:14:58;12.09;55.59
69387;SHT31;56575;48.942;8.404;2022-11-20T14:17:35;11.67;56.94
69387;SHT31;56575;48.942;8.404;2022-11-20T14:20:06;11.04;58.16
69387;SHT31;56575;48.942;8.404;2022-11-20T14:22:37;10.71;58.51
69387;SHT31;56575;48.942;8.404;2022-11-20T14:27:42;10.33;60.52
69387;SHT31;56575;48.942;8.404;2022-11-20T14:30:17;10.24;60.44
69387;SHT31;56575;48.942;8.404;2022-11-20T14:32:45;10.20;61.82
69387;SHT31;56575;48.942;8.404;2022-11-20T14:35:19;10.17;62.63
69387;SHT31;56575;48.942;8.404;2022-11-20T14:37:45;9.99;61.95
69387;SHT31;56575;48.942;8.404;2022-11-20T14:40:23;10.02;61.68
69387;SHT31;56575;48.942;8.404;2022-11-20T14:42:49;9.87;61.29
69387;SHT31;56575;48.942;8.404;2022-11-20T14:45:14;9.78;61.19
69387;SHT31;56575;48.942;8.404;2022-11-20T14:47:40;9.67;62.35
69387;SHT31;56575;48.942;8.404;2022-11-20T14:50:20;9.58;62.12
69387;SHT31;56575;48.942;8.404;2022-11-20T14:52:58;9.59;63.02
69387;SHT31;56575;48.942;8.404;2022-11-20T14:55:34;9.57;63.34
69387;SHT31;56575;48.942;8.404;2022-11-20T14:58:05;9.55;63.45
69387;SHT31;56575;48.942;8.404;2022-11-20T15:00:33;9.52;64.21
69387;SHT31;56575;48.942;8.404;2022-11-20T15:02:59;9.41;63.82
69387;SHT31;56575;48.942;8.404;2022-11-20T15:05:44;9.41;65.19
69387;SHT31;56575;48.942;8.404;2022-11-20T15:08:12;9.32;64.27
69387;SHT31;56575;48.942;8.404;2022-11-20T15:10:38;9.32;65.11
69387;SHT31;56575;48.942;8.404;2022-11-20T15:13:11;9.27;65.98
69387;SHT31;56575;48.942;8.404;2022-11-20T15:15:47;9.24;66.62
69387;SHT31;56575;48.942;8.404;2022-11-20T15:18:14;9.14;64.89
69387;SHT31;56575;48.942;8.404;2022-11-20T15:20:41;9.14;66.41
69387;SHT31;56575;48.942;8.404;2022-11-20T15:23:12;9.13;66.02
69387;SHT31;56575;48.942;8.404;2022-11-20T15:25:39;9.09;66.17
69387;SHT31;56575;48.942;8.404;2022-11-20T15:28:16;9.07;66.44
69387;SHT31;56575;48.942;8.404;2022-11-20T15:30:43;9.04;66.75
69387;SHT31;56575;48.942;8.404;2022-11-20T15:33:09;9.03;67.15
69387;SHT31;56575;48.942;8.404;2022-11-20T15:35:35;9.06;68.45
69387;SHT31;56575;48.942;8.404;2022-11-20T15:38:00;9.02;66.13
69387;SHT31;56575;48.942;8.404;2022-11-20T15:40:26;8.97;65.65
69387;SHT31;56575;48.942;8.404;2022-11-20T15:42:51;8.96;66.20
69387;SHT31;56575;48.942;8.404;2022-11-20T15:45:49;8.99;66.72
69387;SHT31;56575;48.942;8.404;2022-11-20T15:48:21;8.99;65.48
69387;SHT31;56575;48.942;8.404;2022-11-20T15:50:52;9.03;65.58
69387;SHT31;56575;48.942;8.404;2022-11-20T15:53:19;9.00;65.70
69387;SHT31;56575;48.942;8.404;2022-11-20T15:55:45;9.04;65.76
69387;SHT31;56575;48.942;8.404;2022-11-20T15:58:10;9.03;66.27
69387;SHT31;56575;48.942;8.404;2022-11-20T16:00:35;9.13;67.51
69387;SHT31;56575;48.942;8.404;2022-11-20T16:03:01;9.24;67.07
69387;SHT31;56575;48.942;8.404;2022-11-20T16:05:30;9.20;66.55
69387;SHT31;56575;48.942;8.404;2022-11-20T16:07:55;9.14;66.74
69387;SHT31;56575;48.942;8.404;2022-11-20T16:10:21;9.12;67.39
69387;SHT31;56575;48.942;8.404;2022-11-20T16:12:47;9.06;66.82
69387;SHT31;56575;48.942;8.404;2022-11-20T16:15:31;8.97;67.09
69387;SHT31;56575;48.942;8.404;2022-11-20T16:18:19;8.95;67.18
69387;SHT31;56575;48.942;8.404;2022-11-20T16:20:47;8.87;66.88
69387;SHT31;56575;48.942;8.404;2022-11-20T16:23:13;8.86;67.49
69387;SHT31;56575;48.942;8.404;2022-11-20T16:25:38;8.87;68.09
69387;SHT31;56575;48.942;8.404;2022-11-20T16:28:04;8.86;68.17
69387;SHT31;56575;48.942;8.404;2022-11-20T16:30:31;8.85;68.32
69387;SHT31;56575;48.942;8.404;2022-11-20T16:32:57;8.85;68.38
69387;SHT31;56575;48.942;8.404;2022-11-20T16:35:22;8.80;67.83
69387;SHT31;56575;48.942;8.404;2022-11-20T16:37:48;8.82;69.14
69387;SHT31;56575;48.942;8.404;2022-11-20T16:40:13;8.83;68.63
69387;SHT31;56575;48.942;8.404;2022-11-20T16:42:39;8.80;70.09
69387;SHT31;56575;48.942;8.404;2022-11-20T16:45:05;8.78;67.98
69387;SHT31;56575;48.942;8.404;2022-11-20T16:47:34;8.79;68.85
69387;SHT31;56575;48.942;8.404;2022-11-20T16:50:00;8.76;69.14
69387;SHT31;56575;48.942;8.404;2022-11-20T16:52:26;8.78;69.48
69387;SHT31;56575;48.942;8.404;2022-11-20T16:54:51;8.76;68.95
69387;SHT31;56575;48.942;8.404;2022-11-20T16:57:17;8.73;69.22
69387;SHT31;56575;48.942;8.404;2022-11-20T16:59:42;8.73;70.46
69387;SHT31;56575;48.942;8.404;2022-11-20T17:02:09;8.72;70.15
69387;SHT31;56575;48.942;8.404;2022-11-20T17:04:35;8.75;70.56
69387;SHT31;56575;48.942;8.404;2022-11-20T17:07:00;8.72;69.71
69387;SHT31;56575;48.942;8.404;2022-11-20T17:09:27;8.73;70.15
69387;SHT31;56575;48.942;8.404;2022-11-20T17:11:52;8.69;70.19
69387;SHT31;56575;48.942;8.404;2022-11-20T17:14:18;8.66;70.77
69387;SHT31;56575;48.942;8.404;2022-11-20T17:16:43;8.66;72.16
69387;SHT31;56575;48.942;8.404;2022-11-20T17:19:09;8.64;71.92
69387;SHT31;56575;48.942;8.404;2022-11-20T17:21:35;8.59;74.22